TAX1810 OBBI-OEJN
Flight info
| Callsign | TAX1810 |
|---|---|
| Flight time | 1h 55m |
| Altitude | 36000 |
| Route | BHR B457 NARMI N112 GETOT Q212 KSA G782 VEMEM |
| Aircraft | B77L/H-SDE1E2E3FGHIJ2J3J4J5M1RWXY/LB1D1 |
Departure
| Time | 2026-04-27 20:24 |
|---|---|
| Airport | Bahrain International Airport (OBBI) |
Arrival
| Time | 2026-04-27 22:19 |
|---|---|
| Airport | King Abdulaziz International Airport (OEJN) |
| Time | Latitude | Longitude | Altitude | Speed | Heading |
|---|---|---|---|---|---|
| 2026-04-27 20:00 | 26.27454 | 50.62007 | 18 ft | 0 kts | 212° |
| 2026-04-27 20:11 | 26.27457 | 50.62009 | 21 ft | 3 kts | 213° |
| 2026-04-27 20:11 | 26.27479 | 50.62026 | 23 ft | 4 kts | 222° |
| 2026-04-27 20:12 | 26.27497 | 50.62048 | 26 ft | 4 kts | 238° |
| 2026-04-27 20:12 | 26.27506 | 50.62074 | 25 ft | 4 kts | 276° |
| 2026-04-27 20:12 | 26.27504 | 50.62088 | 27 ft | 1 kts | 303° |
| 2026-04-27 20:14 | 26.27504 | 50.62087 | 27 ft | 0 kts | 303° |
| 2026-04-27 20:14 | 26.27518 | 50.62062 | 26 ft | 7 kts | 303° |
| 2026-04-27 20:14 | 26.27559 | 50.62042 | 21 ft | 7 kts | 1° |
| 2026-04-27 20:15 | 26.27604 | 50.62057 | 21 ft | 7 kts | 14° |
| 2026-04-27 20:15 | 26.27649 | 50.62038 | 21 ft | 9 kts | 312° |
| 2026-04-27 20:15 | 26.27701 | 50.61954 | 21 ft | 16 kts | 303° |
| 2026-04-27 20:15 | 26.27764 | 50.61849 | 24 ft | 16 kts | 303° |
| 2026-04-27 20:16 | 26.27826 | 50.61742 | 23 ft | 16 kts | 303° |
| 2026-04-27 20:16 | 26.27902 | 50.61664 | 24 ft | 13 kts | 329° |
| 2026-04-27 20:16 | 26.27921 | 50.61654 | 23 ft | 0 kts | 340° |
| 2026-04-27 20:22 | 26.27967 | 50.61657 | 22 ft | 17 kts | 13° |
| 2026-04-27 20:22 | 26.28017 | 50.61756 | 25 ft | 15 kts | 121° |
| 2026-04-27 20:23 | 26.27872 | 50.61995 | 23 ft | 70 kts | 124° |
| 2026-04-27 20:23 | 26.27481 | 50.62673 | 21 ft | 135 kts | 123° |
| 2026-04-27 20:23 | 26.26888 | 50.63725 | 52 ft | 178 kts | 121° |
| 2026-04-27 20:23 | 26.26291 | 50.64946 | 563 ft | 179 kts | 108° |
| 2026-04-27 20:24 | 26.26216 | 50.66319 | 1031 ft | 185 kts | 77° |
| 2026-04-27 20:24 | 26.26568 | 50.67731 | 1492 ft | 192 kts | 76° |
| 2026-04-27 20:24 | 26.26945 | 50.69159 | 1998 ft | 199 kts | 77° |
| 2026-04-27 20:24 | 26.27335 | 50.70699 | 2360 ft | 213 kts | 77° |
| 2026-04-27 20:25 | 26.27929 | 50.72243 | 2599 ft | 233 kts | 50° |
| 2026-04-27 20:25 | 26.29278 | 50.73302 | 2949 ft | 243 kts | 16° |
| 2026-04-27 20:25 | 26.30996 | 50.73448 | 3305 ft | 258 kts | 345° |
| 2026-04-27 20:25 | 26.32587 | 50.72498 | 3708 ft | 264 kts | 310° |
| 2026-04-27 20:26 | 26.33390 | 50.70712 | 4481 ft | 259 kts | 278° |
| 2026-04-27 20:26 | 26.33390 | 50.68748 | 5378 ft | 254 kts | 262° |
| 2026-04-27 20:26 | 26.33141 | 50.66769 | 5992 ft | 263 kts | 261° |
| 2026-04-27 20:26 | 26.32867 | 50.64737 | 6645 ft | 269 kts | 262° |
| 2026-04-27 20:27 | 26.32596 | 50.62649 | 7271 ft | 276 kts | 262° |
| 2026-04-27 20:27 | 26.32357 | 50.60534 | 8093 ft | 272 kts | 265° |
| 2026-04-27 20:27 | 26.32195 | 50.58443 | 8929 ft | 271 kts | 265° |
| 2026-04-27 20:27 | 26.32024 | 50.56347 | 9704 ft | 273 kts | 265° |
| 2026-04-27 20:28 | 26.31844 | 50.54222 | 10345 ft | 279 kts | 265° |
| 2026-04-27 20:28 | 26.31660 | 50.51991 | 10610 ft | 302 kts | 265° |
| 2026-04-27 20:28 | 26.31464 | 50.49560 | 10785 ft | 327 kts | 265° |
| 2026-04-27 20:28 | 26.31326 | 50.47841 | 10912 ft | 343 kts | 265° |
| 2026-04-27 20:29 | 26.31031 | 50.44191 | 11565 ft | 362 kts | 265° |
| 2026-04-27 20:29 | 26.30802 | 50.41372 | 12325 ft | 368 kts | 265° |
| 2026-04-27 20:29 | 26.30568 | 50.38514 | 13187 ft | 372 kts | 265° |
| 2026-04-27 20:29 | 26.30334 | 50.35636 | 14034 ft | 375 kts | 266° |
| 2026-04-27 20:30 | 26.30262 | 50.32723 | 14816 ft | 378 kts | 271° |
| 2026-04-27 20:30 | 26.30469 | 50.29790 | 15594 ft | 381 kts | 277° |
| 2026-04-27 20:30 | 26.30897 | 50.26859 | 16351 ft | 385 kts | 278° |
| 2026-04-27 20:30 | 26.31328 | 50.23895 | 17090 ft | 390 kts | 278° |
| 2026-04-27 20:31 | 26.31750 | 50.20897 | 17841 ft | 393 kts | 278° |
| 2026-04-27 20:31 | 26.32144 | 50.17866 | 18510 ft | 396 kts | 275° |
| 2026-04-27 20:31 | 26.32307 | 50.14798 | 19206 ft | 397 kts | 269° |
| 2026-04-27 20:31 | 26.32234 | 50.11719 | 19897 ft | 399 kts | 268° |
| 2026-04-27 20:32 | 26.32154 | 50.08622 | 20592 ft | 401 kts | 268° |
| 2026-04-27 20:32 | 26.32079 | 50.05507 | 21257 ft | 403 kts | 268° |
| 2026-04-27 20:32 | 26.32007 | 50.02371 | 21910 ft | 406 kts | 268° |
| 2026-04-27 20:32 | 26.31938 | 49.99220 | 22549 ft | 408 kts | 268° |
| 2026-04-27 20:33 | 26.31870 | 49.96093 | 23144 ft | 411 kts | 267° |
| 2026-04-27 20:33 | 26.31801 | 49.92893 | 23621 ft | 415 kts | 267° |
| 2026-04-27 20:33 | 26.31731 | 49.89672 | 24127 ft | 417 kts | 267° |
| 2026-04-27 20:33 | 26.31660 | 49.86455 | 24868 ft | 413 kts | 267° |
| 2026-04-27 20:34 | 26.31590 | 49.83265 | 25540 ft | 412 kts | 267° |
| 2026-04-27 20:34 | 26.31520 | 49.80063 | 26008 ft | 415 kts | 267° |
| 2026-04-27 20:34 | 26.31447 | 49.76830 | 26462 ft | 419 kts | 266° |
| 2026-04-27 20:34 | 26.31372 | 49.73574 | 26918 ft | 422 kts | 266° |
| 2026-04-27 20:35 | 26.31297 | 49.70287 | 27315 ft | 427 kts | 266° |
| 2026-04-27 20:35 | 26.31219 | 49.66972 | 27800 ft | 428 kts | 266° |
| 2026-04-27 20:35 | 26.31149 | 49.63937 | 28291 ft | 429 kts | 266° |
| 2026-04-27 20:35 | 26.31070 | 49.60612 | 28805 ft | 430 kts | 265° |
| 2026-04-27 20:36 | 26.30991 | 49.57273 | 29248 ft | 432 kts | 265° |
| 2026-04-27 20:36 | 26.30910 | 49.53915 | 29674 ft | 434 kts | 265° |
| 2026-04-27 20:36 | 26.30830 | 49.50561 | 30178 ft | 432 kts | 265° |
| 2026-04-27 20:36 | 26.30749 | 49.47228 | 30757 ft | 428 kts | 265° |
| 2026-04-27 20:37 | 26.30666 | 49.43925 | 31276 ft | 426 kts | 265° |
| 2026-04-27 20:37 | 26.30578 | 49.40631 | 31741 ft | 425 kts | 265° |
| 2026-04-27 20:37 | 26.30485 | 49.37343 | 32169 ft | 424 kts | 266° |
| 2026-04-27 20:37 | 26.30393 | 49.34064 | 32581 ft | 423 kts | 266° |
| 2026-04-27 20:38 | 26.30300 | 49.30786 | 32982 ft | 423 kts | 266° |
| 2026-04-27 20:38 | 26.30207 | 49.27515 | 33370 ft | 422 kts | 266° |
| 2026-04-27 20:38 | 26.30113 | 49.24245 | 33728 ft | 422 kts | 266° |
| 2026-04-27 20:38 | 26.30020 | 49.20981 | 34049 ft | 422 kts | 266° |
| 2026-04-27 20:39 | 26.29926 | 49.17714 | 34337 ft | 422 kts | 266° |
| 2026-04-27 20:39 | 26.29831 | 49.14448 | 34659 ft | 421 kts | 266° |
| 2026-04-27 20:39 | 26.29735 | 49.11191 | 34978 ft | 420 kts | 266° |
| 2026-04-27 20:39 | 26.29615 | 49.07944 | 35277 ft | 419 kts | 265° |
| 2026-04-27 20:40 | 26.29395 | 49.04709 | 35529 ft | 419 kts | 264° |
| 2026-04-27 20:40 | 26.29129 | 49.01467 | 35705 ft | 421 kts | 264° |
| 2026-04-27 20:40 | 26.28580 | 48.94938 | 35779 ft | 422 kts | 264° |
| 2026-04-27 20:41 | 26.28065 | 48.88453 | 35791 ft | 418 kts | 264° |
| 2026-04-27 20:41 | 26.27568 | 48.82014 | 35800 ft | 416 kts | 264° |
| 2026-04-27 20:42 | 26.27074 | 48.75603 | 35801 ft | 415 kts | 264° |
| 2026-04-27 20:42 | 26.26577 | 48.69202 | 35811 ft | 415 kts | 264° |
| 2026-04-27 20:43 | 26.26077 | 48.62795 | 35813 ft | 416 kts | 264° |
| 2026-04-27 20:43 | 26.25565 | 48.56374 | 35817 ft | 416 kts | 263° |
| 2026-04-27 20:44 | 26.24355 | 48.50071 | 35827 ft | 417 kts | 255° |
| 2026-04-27 20:44 | 26.22459 | 48.43945 | 35829 ft | 420 kts | 248° |
| 2026-04-27 20:45 | 26.19978 | 48.38041 | 35833 ft | 422 kts | 246° |
| 2026-04-27 20:45 | 26.17473 | 48.32134 | 35829 ft | 422 kts | 247° |
| 2026-04-27 20:46 | 26.14989 | 48.26206 | 35837 ft | 422 kts | 247° |
| 2026-04-27 20:46 | 26.12470 | 48.20300 | 35835 ft | 423 kts | 244° |
| 2026-04-27 20:47 | 26.09346 | 48.14786 | 35846 ft | 426 kts | 237° |
| 2026-04-27 20:47 | 26.05607 | 48.09659 | 35854 ft | 427 kts | 234° |
| 2026-04-27 20:48 | 26.02426 | 48.05405 | 35854 ft | 427 kts | 234° |
| 2026-04-27 20:48 | 25.98035 | 47.99504 | 35857 ft | 426 kts | 235° |
| 2026-04-27 20:49 | 25.94273 | 47.94436 | 35857 ft | 425 kts | 235° |
| 2026-04-27 20:49 | 25.90515 | 47.89377 | 35855 ft | 424 kts | 235° |
| 2026-04-27 20:50 | 25.86762 | 47.84332 | 35865 ft | 423 kts | 234° |
| 2026-04-27 20:50 | 25.83000 | 47.79299 | 35874 ft | 423 kts | 234° |
| 2026-04-27 20:51 | 25.79226 | 47.74288 | 35860 ft | 423 kts | 234° |
| 2026-04-27 20:51 | 25.75451 | 47.69274 | 35865 ft | 424 kts | 234° |
| 2026-04-27 20:52 | 25.71668 | 47.64251 | 35874 ft | 425 kts | 234° |
| 2026-04-27 20:52 | 25.67886 | 47.59214 | 35879 ft | 425 kts | 234° |
| 2026-04-27 20:53 | 25.64111 | 47.54157 | 35884 ft | 426 kts | 234° |
| 2026-04-27 20:53 | 25.60320 | 47.49097 | 35883 ft | 427 kts | 234° |
| 2026-04-27 20:54 | 25.55257 | 47.42370 | 35888 ft | 427 kts | 234° |
| 2026-04-27 20:55 | 25.51451 | 47.37320 | 35885 ft | 427 kts | 234° |
| 2026-04-27 20:55 | 25.47643 | 47.32269 | 35891 ft | 427 kts | 234° |
| 2026-04-27 20:56 | 25.43833 | 47.27221 | 35899 ft | 427 kts | 234° |
| 2026-04-27 20:56 | 25.40022 | 47.22176 | 35898 ft | 427 kts | 234° |
| 2026-04-27 20:57 | 25.36209 | 47.17134 | 35887 ft | 427 kts | 234° |
| 2026-04-27 20:57 | 25.32393 | 47.12093 | 35897 ft | 428 kts | 234° |
| 2026-04-27 20:58 | 25.28569 | 47.07046 | 35912 ft | 428 kts | 234° |
| 2026-04-27 20:58 | 25.24761 | 47.02028 | 35904 ft | 429 kts | 234° |
| 2026-04-27 20:59 | 25.20924 | 46.96976 | 35925 ft | 430 kts | 234° |
| 2026-04-27 20:59 | 25.17078 | 46.91917 | 35922 ft | 430 kts | 234° |
| 2026-04-27 21:00 | 25.13230 | 46.86862 | 35900 ft | 430 kts | 234° |
| 2026-04-27 21:00 | 25.09380 | 46.81808 | 35918 ft | 430 kts | 234° |
| 2026-04-27 21:01 | 25.05527 | 46.76756 | 35911 ft | 430 kts | 234° |
| 2026-04-27 21:01 | 25.01674 | 46.71709 | 35914 ft | 430 kts | 234° |
| 2026-04-27 21:02 | 24.97880 | 46.66627 | 35920 ft | 428 kts | 237° |
| 2026-04-27 21:02 | 24.94642 | 46.61162 | 35913 ft | 425 kts | 241° |
| 2026-04-27 21:03 | 24.91467 | 46.55665 | 35897 ft | 426 kts | 240° |
| 2026-04-27 21:03 | 24.88271 | 46.50167 | 35908 ft | 427 kts | 240° |
| 2026-04-27 21:04 | 24.85061 | 46.44657 | 35922 ft | 428 kts | 240° |
| 2026-04-27 21:04 | 24.81841 | 46.39134 | 35924 ft | 430 kts | 240° |
| 2026-04-27 21:05 | 24.78608 | 46.33597 | 35927 ft | 430 kts | 240° |
| 2026-04-27 21:05 | 24.75367 | 46.28052 | 35919 ft | 431 kts | 240° |
| 2026-04-27 21:06 | 24.72121 | 46.22506 | 35922 ft | 431 kts | 240° |
| 2026-04-27 21:06 | 24.68864 | 46.16946 | 35908 ft | 432 kts | 240° |
| 2026-04-27 21:07 | 24.65610 | 46.11397 | 35910 ft | 431 kts | 240° |
| 2026-04-27 21:07 | 24.62358 | 46.05858 | 35906 ft | 431 kts | 240° |
| 2026-04-27 21:08 | 24.59107 | 46.00326 | 35908 ft | 431 kts | 240° |
| 2026-04-27 21:08 | 24.55857 | 45.94803 | 35909 ft | 430 kts | 240° |
| 2026-04-27 21:09 | 24.52605 | 45.89282 | 35902 ft | 430 kts | 240° |
| 2026-04-27 21:09 | 24.49379 | 45.83810 | 35902 ft | 430 kts | 240° |
| 2026-04-27 21:10 | 24.46132 | 45.78306 | 35901 ft | 429 kts | 241° |
| 2026-04-27 21:10 | 24.43334 | 45.72559 | 35896 ft | 426 kts | 246° |
| 2026-04-27 21:11 | 24.40751 | 45.66697 | 35895 ft | 427 kts | 246° |
| 2026-04-27 21:11 | 24.38150 | 45.60844 | 35898 ft | 427 kts | 246° |
| 2026-04-27 21:12 | 24.35538 | 45.54987 | 35893 ft | 428 kts | 246° |
| 2026-04-27 21:12 | 24.32918 | 45.49122 | 35901 ft | 429 kts | 246° |
| 2026-04-27 21:13 | 24.30292 | 45.43249 | 35901 ft | 429 kts | 246° |
| 2026-04-27 21:13 | 24.27660 | 45.37372 | 35901 ft | 430 kts | 246° |
| 2026-04-27 21:14 | 24.25024 | 45.31491 | 35911 ft | 430 kts | 246° |
| 2026-04-27 21:14 | 24.22382 | 45.25605 | 35909 ft | 431 kts | 246° |
| 2026-04-27 21:15 | 24.19755 | 45.19760 | 35886 ft | 431 kts | 246° |
| 2026-04-27 21:15 | 24.17105 | 45.13867 | 35913 ft | 432 kts | 246° |
| 2026-04-27 21:16 | 24.14448 | 45.07964 | 35919 ft | 432 kts | 246° |
| 2026-04-27 21:16 | 24.11789 | 45.02054 | 35924 ft | 433 kts | 246° |
| 2026-04-27 21:17 | 24.09122 | 44.96132 | 35929 ft | 434 kts | 246° |
| 2026-04-27 21:17 | 24.06450 | 44.90205 | 35923 ft | 434 kts | 246° |
| 2026-04-27 21:18 | 24.03776 | 44.84282 | 35921 ft | 434 kts | 246° |
| 2026-04-27 21:18 | 24.01104 | 44.78370 | 35925 ft | 433 kts | 246° |
| 2026-04-27 21:19 | 23.98435 | 44.72472 | 35909 ft | 432 kts | 246° |
| 2026-04-27 21:19 | 23.95769 | 44.66585 | 35921 ft | 432 kts | 246° |
| 2026-04-27 21:20 | 23.92221 | 44.57573 | 35936 ft | 429 kts | 254° |
| 2026-04-27 21:20 | 23.90788 | 44.51251 | 35931 ft | 429 kts | 258° |
| 2026-04-27 21:21 | 23.89455 | 44.44900 | 35926 ft | 429 kts | 258° |
| 2026-04-27 21:21 | 23.88106 | 44.38549 | 35930 ft | 429 kts | 258° |
| 2026-04-27 21:22 | 23.86747 | 44.32195 | 35927 ft | 430 kts | 258° |
| 2026-04-27 21:22 | 23.85381 | 44.25834 | 35924 ft | 430 kts | 258° |
| 2026-04-27 21:23 | 23.84012 | 44.19468 | 35939 ft | 431 kts | 258° |
| 2026-04-27 21:23 | 23.82640 | 44.13101 | 35924 ft | 430 kts | 258° |
| 2026-04-27 21:24 | 23.81267 | 44.06745 | 35929 ft | 430 kts | 258° |
| 2026-04-27 21:24 | 23.79893 | 44.00394 | 35914 ft | 429 kts | 258° |
| 2026-04-27 21:25 | 23.78519 | 43.94055 | 35931 ft | 429 kts | 258° |
| 2026-04-27 21:25 | 23.77151 | 43.87760 | 35942 ft | 429 kts | 258° |
| 2026-04-27 21:26 | 23.75763 | 43.81429 | 35943 ft | 429 kts | 257° |
| 2026-04-27 21:26 | 23.74370 | 43.75096 | 35949 ft | 429 kts | 257° |
| 2026-04-27 21:27 | 23.72977 | 43.68770 | 35946 ft | 429 kts | 257° |
| 2026-04-27 21:27 | 23.71582 | 43.62445 | 35962 ft | 429 kts | 257° |
| 2026-04-27 21:28 | 23.70185 | 43.56125 | 35957 ft | 428 kts | 257° |
| 2026-04-27 21:28 | 23.68787 | 43.49806 | 35960 ft | 429 kts | 257° |
| 2026-04-27 21:29 | 23.67382 | 43.43477 | 35966 ft | 429 kts | 257° |
| 2026-04-27 21:29 | 23.65975 | 43.37146 | 35982 ft | 430 kts | 257° |
| 2026-04-27 21:30 | 23.64563 | 43.30807 | 35986 ft | 430 kts | 257° |
| 2026-04-27 21:30 | 23.63148 | 43.24469 | 35981 ft | 430 kts | 257° |
| 2026-04-27 21:31 | 23.61730 | 43.18130 | 35972 ft | 430 kts | 257° |
| 2026-04-27 21:31 | 23.60309 | 43.11791 | 35994 ft | 430 kts | 257° |
| 2026-04-27 21:32 | 23.58886 | 43.05451 | 35994 ft | 431 kts | 257° |
| 2026-04-27 21:32 | 23.57458 | 42.99105 | 35998 ft | 431 kts | 257° |
| 2026-04-27 21:33 | 23.56036 | 42.92800 | 35996 ft | 431 kts | 257° |
| 2026-04-27 21:33 | 23.54602 | 42.86451 | 35992 ft | 431 kts | 257° |
| 2026-04-27 21:34 | 23.53166 | 42.80104 | 35991 ft | 432 kts | 257° |
| 2026-04-27 21:34 | 23.51727 | 42.73758 | 35998 ft | 431 kts | 257° |
| 2026-04-27 21:35 | 23.50287 | 42.67413 | 35988 ft | 431 kts | 257° |
| 2026-04-27 21:35 | 23.48846 | 42.61066 | 35986 ft | 431 kts | 257° |
| 2026-04-27 21:36 | 23.47404 | 42.54726 | 35983 ft | 431 kts | 257° |
| 2026-04-27 21:36 | 23.45960 | 42.48390 | 35980 ft | 431 kts | 257° |
| 2026-04-27 21:37 | 23.44514 | 42.42063 | 35978 ft | 431 kts | 257° |
| 2026-04-27 21:37 | 23.43067 | 42.35738 | 35960 ft | 431 kts | 257° |
| 2026-04-27 21:38 | 23.41617 | 42.29415 | 35983 ft | 430 kts | 257° |
| 2026-04-27 21:38 | 23.40164 | 42.23091 | 35973 ft | 431 kts | 257° |
| 2026-04-27 21:39 | 23.38708 | 42.16764 | 35979 ft | 431 kts | 257° |
| 2026-04-27 21:39 | 23.37248 | 42.10436 | 35967 ft | 431 kts | 257° |
| 2026-04-27 21:40 | 23.35783 | 42.04095 | 35967 ft | 431 kts | 257° |
| 2026-04-27 21:40 | 23.34317 | 41.97765 | 35983 ft | 431 kts | 257° |
| 2026-04-27 21:41 | 23.32860 | 41.91484 | 35965 ft | 431 kts | 257° |
| 2026-04-27 21:41 | 23.31390 | 41.85157 | 35986 ft | 431 kts | 257° |
| 2026-04-27 21:42 | 23.29917 | 41.78829 | 35985 ft | 432 kts | 257° |
| 2026-04-27 21:42 | 23.28019 | 41.72631 | 35977 ft | 434 kts | 249° |
| 2026-04-27 21:43 | 23.25311 | 41.66748 | 35977 ft | 437 kts | 242° |
| 2026-04-27 21:43 | 23.22032 | 41.61182 | 35977 ft | 437 kts | 240° |
| 2026-04-27 21:44 | 23.19249 | 41.56539 | 35993 ft | 437 kts | 240° |
| 2026-04-27 21:44 | 23.15942 | 41.50990 | 35998 ft | 438 kts | 241° |
| 2026-04-27 21:45 | 23.12109 | 41.44525 | 36003 ft | 438 kts | 241° |
| 2026-04-27 21:45 | 23.09369 | 41.39901 | 35983 ft | 438 kts | 241° |
| 2026-04-27 21:46 | 23.06071 | 41.34342 | 36024 ft | 438 kts | 241° |
| 2026-04-27 21:46 | 23.02767 | 41.28779 | 36004 ft | 439 kts | 240° |
| 2026-04-27 21:47 | 22.99457 | 41.23212 | 36010 ft | 439 kts | 240° |
| 2026-04-27 21:47 | 22.96142 | 41.17643 | 36009 ft | 440 kts | 240° |
| 2026-04-27 21:48 | 22.92823 | 41.12072 | 36021 ft | 440 kts | 240° |
| 2026-04-27 21:48 | 22.89499 | 41.06499 | 36007 ft | 440 kts | 240° |
| 2026-04-27 21:49 | 22.86175 | 41.00931 | 36008 ft | 440 kts | 240° |
| 2026-04-27 21:49 | 22.82844 | 40.95369 | 36009 ft | 440 kts | 240° |
| 2026-04-27 21:50 | 22.79505 | 40.89808 | 36026 ft | 440 kts | 240° |
| 2026-04-27 21:50 | 22.76166 | 40.84249 | 36018 ft | 440 kts | 240° |
| 2026-04-27 21:51 | 22.72828 | 40.78696 | 35994 ft | 440 kts | 240° |
| 2026-04-27 21:51 | 22.69489 | 40.73145 | 36009 ft | 439 kts | 240° |
| 2026-04-27 21:52 | 22.66151 | 40.67603 | 36014 ft | 439 kts | 240° |
| 2026-04-27 21:52 | 22.62812 | 40.62064 | 36022 ft | 439 kts | 240° |
| 2026-04-27 21:53 | 22.59469 | 40.56527 | 36025 ft | 440 kts | 240° |
| 2026-04-27 21:53 | 22.56149 | 40.51030 | 36016 ft | 440 kts | 240° |
| 2026-04-27 21:54 | 22.52798 | 40.45490 | 36036 ft | 440 kts | 240° |
| 2026-04-27 21:54 | 22.49442 | 40.39946 | 36031 ft | 440 kts | 240° |
| 2026-04-27 21:55 | 22.47781 | 40.37208 | 35845 ft | 432 kts | 240° |
| 2026-04-27 21:55 | 22.46144 | 40.34512 | 35381 ft | 427 kts | 240° |
| 2026-04-27 21:55 | 22.44509 | 40.31815 | 34533 ft | 432 kts | 241° |
| 2026-04-27 21:55 | 22.42852 | 40.29079 | 33527 ft | 438 kts | 241° |
| 2026-04-27 21:56 | 22.41172 | 40.26305 | 32498 ft | 443 kts | 240° |
| 2026-04-27 21:56 | 22.37787 | 40.20703 | 30627 ft | 447 kts | 240° |
| 2026-04-27 21:56 | 22.36161 | 40.17852 | 29928 ft | 443 kts | 241° |
| 2026-04-27 21:57 | 22.34591 | 40.15027 | 29324 ft | 435 kts | 241° |
| 2026-04-27 21:57 | 22.33051 | 40.12240 | 28729 ft | 429 kts | 241° |
| 2026-04-27 21:57 | 22.31531 | 40.09496 | 28094 ft | 423 kts | 241° |
| 2026-04-27 21:57 | 22.30023 | 40.06784 | 27456 ft | 419 kts | 240° |
| 2026-04-27 21:58 | 22.28523 | 40.04102 | 26831 ft | 415 kts | 240° |
| 2026-04-27 21:58 | 22.27038 | 40.01453 | 26259 ft | 410 kts | 240° |
| 2026-04-27 21:58 | 22.25569 | 39.98840 | 25749 ft | 404 kts | 240° |
| 2026-04-27 21:58 | 22.24120 | 39.96267 | 25188 ft | 400 kts | 240° |
| 2026-04-27 21:59 | 22.22679 | 39.93709 | 24578 ft | 397 kts | 240° |
| 2026-04-27 21:59 | 22.21247 | 39.91167 | 23984 ft | 395 kts | 240° |
| 2026-04-27 21:59 | 22.19823 | 39.88642 | 23442 ft | 391 kts | 239° |
| 2026-04-27 21:59 | 22.18415 | 39.86148 | 22865 ft | 387 kts | 239° |
| 2026-04-27 22:00 | 22.17024 | 39.83684 | 22262 ft | 383 kts | 239° |
| 2026-04-27 22:00 | 22.15642 | 39.81237 | 21693 ft | 380 kts | 239° |
| 2026-04-27 22:00 | 22.14272 | 39.78812 | 21114 ft | 378 kts | 239° |
| 2026-04-27 22:00 | 22.12906 | 39.76395 | 20563 ft | 375 kts | 239° |
| 2026-04-27 22:01 | 22.11551 | 39.73998 | 19981 ft | 373 kts | 239° |
| 2026-04-27 22:01 | 22.10219 | 39.71644 | 19411 ft | 372 kts | 239° |
| 2026-04-27 22:01 | 22.08857 | 39.69239 | 18861 ft | 370 kts | 239° |
| 2026-04-27 22:01 | 22.07522 | 39.66880 | 18290 ft | 368 kts | 239° |
| 2026-04-27 22:02 | 22.06189 | 39.64524 | 17666 ft | 367 kts | 239° |
| 2026-04-27 22:02 | 22.04881 | 39.62214 | 17070 ft | 365 kts | 239° |
| 2026-04-27 22:02 | 22.03577 | 39.59916 | 16313 ft | 352 kts | 239° |
| 2026-04-27 22:02 | 22.02298 | 39.57667 | 15055 ft | 359 kts | 238° |
| 2026-04-27 22:03 | 22.00972 | 39.55338 | 14345 ft | 367 kts | 238° |
| 2026-04-27 22:03 | 21.99639 | 39.52996 | 13988 ft | 365 kts | 237° |
| 2026-04-27 22:03 | 21.98322 | 39.50682 | 13694 ft | 360 kts | 237° |
| 2026-04-27 22:03 | 21.97017 | 39.48389 | 13300 ft | 358 kts | 238° |
| 2026-04-27 22:04 | 21.95718 | 39.46106 | 12862 ft | 357 kts | 238° |
| 2026-04-27 22:04 | 21.94429 | 39.43839 | 12672 ft | 349 kts | 238° |
| 2026-04-27 22:04 | 21.93182 | 39.41643 | 12603 ft | 339 kts | 238° |
| 2026-04-27 22:04 | 21.91968 | 39.39509 | 12523 ft | 329 kts | 238° |
| 2026-04-27 22:05 | 21.90790 | 39.37438 | 12462 ft | 320 kts | 238° |
| 2026-04-27 22:05 | 21.89647 | 39.35429 | 12356 ft | 304 kts | 238° |
| 2026-04-27 22:05 | 21.88581 | 39.33554 | 12121 ft | 284 kts | 238° |
| 2026-04-27 22:05 | 21.87575 | 39.31784 | 11734 ft | 272 kts | 238° |
| 2026-04-27 22:06 | 21.86596 | 39.30067 | 11163 ft | 267 kts | 238° |
| 2026-04-27 22:06 | 21.85625 | 39.28366 | 10556 ft | 266 kts | 238° |
| 2026-04-27 22:06 | 21.84658 | 39.26674 | 10029 ft | 263 kts | 239° |
| 2026-04-27 22:06 | 21.83720 | 39.25035 | 9750 ft | 253 kts | 239° |
| 2026-04-27 22:07 | 21.82680 | 39.23566 | 9523 ft | 246 kts | 219° |
| 2026-04-27 22:07 | 21.81135 | 39.22786 | 9150 ft | 253 kts | 193° |
| 2026-04-27 22:07 | 21.79340 | 39.22749 | 8633 ft | 262 kts | 171° |
| 2026-04-27 22:07 | 21.77596 | 39.23313 | 8295 ft | 260 kts | 162° |
| 2026-04-27 22:08 | 21.75930 | 39.24001 | 8061 ft | 253 kts | 161° |
| 2026-04-27 22:08 | 21.74259 | 39.24685 | 7488 ft | 261 kts | 161° |
| 2026-04-27 22:08 | 21.72573 | 39.25364 | 7234 ft | 255 kts | 161° |
| 2026-04-27 22:08 | 21.70935 | 39.26027 | 6907 ft | 253 kts | 161° |
| 2026-04-27 22:09 | 21.69264 | 39.26695 | 6410 ft | 255 kts | 161° |
| 2026-04-27 22:09 | 21.67618 | 39.27347 | 6030 ft | 251 kts | 161° |
| 2026-04-27 22:09 | 21.65977 | 39.27983 | 5684 ft | 252 kts | 160° |
| 2026-04-27 22:09 | 21.64321 | 39.28645 | 5287 ft | 254 kts | 160° |
| 2026-04-27 22:10 | 21.62673 | 39.29310 | 4932 ft | 252 kts | 159° |
| 2026-04-27 22:10 | 21.61592 | 39.29748 | 4702 ft | 250 kts | 158° |
| 2026-04-27 22:10 | 21.59437 | 39.30577 | 4211 ft | 247 kts | 160° |
| 2026-04-27 22:10 | 21.57768 | 39.30971 | 3861 ft | 243 kts | 181° |
| 2026-04-27 22:11 | 21.56072 | 39.30822 | 3578 ft | 247 kts | 187° |
| 2026-04-27 22:11 | 21.54363 | 39.30610 | 3276 ft | 245 kts | 188° |
| 2026-04-27 22:11 | 21.52737 | 39.30403 | 3285 ft | 230 kts | 187° |
| 2026-04-27 22:11 | 21.51147 | 39.30220 | 3114 ft | 232 kts | 187° |
| 2026-04-27 22:12 | 21.49574 | 39.30036 | 3082 ft | 224 kts | 187° |
| 2026-04-27 22:12 | 21.48021 | 39.29878 | 3040 ft | 225 kts | 187° |
| 2026-04-27 22:12 | 21.46478 | 39.29617 | 2997 ft | 224 kts | 203° |
| 2026-04-27 22:12 | 21.45256 | 39.28658 | 3009 ft | 216 kts | 240° |
| 2026-04-27 22:13 | 21.44787 | 39.27194 | 2996 ft | 204 kts | 275° |
| 2026-04-27 22:13 | 21.45214 | 39.25779 | 3002 ft | 202 kts | 311° |
| 2026-04-27 22:13 | 21.46325 | 39.24981 | 2980 ft | 183 kts | 348° |
| 2026-04-27 22:13 | 21.47481 | 39.24859 | 2987 ft | 159 kts | 354° |
| 2026-04-27 22:14 | 21.48523 | 39.24704 | 2965 ft | 144 kts | 349° |
| 2026-04-27 22:14 | 21.49490 | 39.24480 | 2987 ft | 142 kts | 345° |
| 2026-04-27 22:14 | 21.50466 | 39.24238 | 3006 ft | 146 kts | 347° |
| 2026-04-27 22:14 | 21.51453 | 39.23969 | 3020 ft | 146 kts | 346° |
| 2026-04-27 22:15 | 21.52423 | 39.23646 | 2885 ft | 146 kts | 343° |
| 2026-04-27 22:15 | 21.53365 | 39.23289 | 2695 ft | 142 kts | 342° |
| 2026-04-27 22:15 | 21.54276 | 39.22935 | 2488 ft | 139 kts | 341° |
| 2026-04-27 22:15 | 21.55227 | 39.22551 | 2228 ft | 146 kts | 341° |
| 2026-04-27 22:16 | 21.56150 | 39.22157 | 2090 ft | 141 kts | 340° |
| 2026-04-27 22:16 | 21.57068 | 39.21790 | 1950 ft | 142 kts | 342° |
| 2026-04-27 22:16 | 21.58012 | 39.21424 | 1751 ft | 145 kts | 342° |
| 2026-04-27 22:16 | 21.58930 | 39.21058 | 1515 ft | 137 kts | 342° |
| 2026-04-27 22:17 | 21.59815 | 39.20707 | 1280 ft | 132 kts | 343° |
| 2026-04-27 22:17 | 21.60675 | 39.20399 | 1151 ft | 134 kts | 342° |
| 2026-04-27 22:17 | 21.61588 | 39.20044 | 1107 ft | 146 kts | 340° |
| 2026-04-27 22:17 | 21.62520 | 39.19646 | 958 ft | 144 kts | 341° |
| 2026-04-27 22:18 | 21.63479 | 39.19269 | 757 ft | 149 kts | 341° |
| 2026-04-27 22:18 | 21.64470 | 39.18881 | 579 ft | 152 kts | 341° |
| 2026-04-27 22:18 | 21.65464 | 39.18498 | 370 ft | 152 kts | 342° |
| 2026-04-27 22:18 | 21.66442 | 39.18120 | 129 ft | 147 kts | 341° |
| 2026-04-27 22:19 | 21.67360 | 39.17766 | 40 ft | 128 kts | 342° |
| 2026-04-27 22:19 | 21.68089 | 39.17480 | 34 ft | 91 kts | 341° |
| 2026-04-27 22:19 | 21.68536 | 39.17305 | 31 ft | 46 kts | 340° |
| 2026-04-27 22:19 | 21.68705 | 39.17241 | 30 ft | 15 kts | 340° |
| 2026-04-27 22:20 | 21.68806 | 39.17181 | 29 ft | 18 kts | 319° |
| 2026-04-27 22:20 | 21.68883 | 39.17081 | 31 ft | 15 kts | 306° |
| 2026-04-27 22:20 | 21.68915 | 39.17031 | 31 ft | 0 kts | 303° |
| 2026-04-27 22:23 | 21.68916 | 39.17030 | 31 ft | 1 kts | 303° |
| 2026-04-27 22:23 | 21.68942 | 39.16996 | 30 ft | 3 kts | 310° |
| 2026-04-27 22:23 | 21.68932 | 39.16953 | 30 ft | 11 kts | 229° |
| 2026-04-27 22:23 | 21.68860 | 39.16947 | 31 ft | 11 kts | 165° |
| 2026-04-27 22:24 | 21.68790 | 39.16976 | 31 ft | 11 kts | 160° |
| 2026-04-27 22:24 | 21.68719 | 39.17003 | 31 ft | 11 kts | 160° |
| 2026-04-27 22:24 | 21.68648 | 39.17031 | 31 ft | 11 kts | 160° |
| 2026-04-27 22:24 | 21.68566 | 39.17058 | 32 ft | 16 kts | 171° |
| 2026-04-27 22:25 | 21.68449 | 39.17028 | 32 ft | 18 kts | 179° |
| 2026-04-27 22:25 | 21.68265 | 39.17082 | 33 ft | 35 kts | 160° |
| 2026-04-27 22:25 | 21.68067 | 39.17163 | 34 ft | 25 kts | 158° |
| 2026-04-27 22:25 | 21.67927 | 39.17063 | 35 ft | 32 kts | 250° |
| 2026-04-27 22:26 | 21.67833 | 39.16792 | 35 ft | 47 kts | 249° |
| 2026-04-27 22:26 | 21.67716 | 39.16448 | 35 ft | 48 kts | 249° |
| 2026-04-27 22:26 | 21.67693 | 39.16170 | 34 ft | 35 kts | 323° |
| 2026-04-27 22:26 | 21.67929 | 39.16075 | 33 ft | 41 kts | 340° |
| 2026-04-27 22:27 | 21.68254 | 39.15948 | 32 ft | 55 kts | 340° |
| 2026-04-27 22:27 | 21.68602 | 39.15812 | 30 ft | 51 kts | 340° |
| 2026-04-27 22:27 | 21.68820 | 39.15726 | 29 ft | 25 kts | 338° |
| 2026-04-27 22:27 | 21.68851 | 39.15589 | 29 ft | 22 kts | 249° |
| 2026-04-27 22:28 | 21.68788 | 39.15410 | 28 ft | 30 kts | 250° |
| 2026-04-27 22:28 | 21.68728 | 39.15231 | 29 ft | 21 kts | 251° |
| 2026-04-27 22:28 | 21.68583 | 39.15212 | 30 ft | 34 kts | 159° |
| 2026-04-27 22:28 | 21.68323 | 39.15315 | 30 ft | 40 kts | 160° |
| 2026-04-27 22:29 | 21.68065 | 39.15416 | 32 ft | 38 kts | 160° |
| 2026-04-27 22:29 | 21.67820 | 39.15513 | 33 ft | 37 kts | 159° |
| 2026-04-27 22:29 | 21.67587 | 39.15607 | 34 ft | 35 kts | 159° |
| 2026-04-27 22:29 | 21.67394 | 39.15682 | 35 ft | 24 kts | 160° |
| 2026-04-27 22:30 | 21.67293 | 39.15720 | 35 ft | 12 kts | 161° |
| 2026-04-27 22:30 | 21.67244 | 39.15738 | 35 ft | 7 kts | 161° |
| 2026-04-27 22:30 | 21.67199 | 39.15751 | 36 ft | 7 kts | 173° |
| 2026-04-27 22:30 | 21.67165 | 39.15747 | 36 ft | 8 kts | 195° |
| 2026-04-27 22:31 | 21.67120 | 39.15703 | 36 ft | 10 kts | 252° |
| 2026-04-27 22:31 | 21.67113 | 39.15671 | 36 ft | 0 kts | 256° |